createdAt,value
2016-10-08T00:00:27.195Z,73.03
2016-10-08T00:01:27.214Z,72.26
2016-10-08T00:02:27.237Z,72.36
2016-10-08T00:03:27.248Z,72.36
2016-10-08T00:04:27.273Z,72.55
2016-10-08T00:05:27.291Z,72.74
2016-10-08T00:06:27.304Z,72.45
2016-10-08T00:07:27.326Z,72.26
2016-10-08T00:08:27.341Z,72.26
2016-10-08T00:09:27.362Z,72.36
2016-10-08T00:10:27.390Z,72.26
2016-10-08T00:11:27.404Z,72.36
2016-10-08T00:12:27.421Z,72.42
2016-10-08T00:13:27.432Z,72.03
2016-10-08T00:14:27.465Z,72.03
2016-10-08T00:15:27.473Z,71.75
2016-10-08T00:16:27.484Z,71.94
2016-10-08T00:17:27.503Z,72.71
2016-10-08T00:18:27.521Z,72.32
2016-10-08T00:19:27.541Z,72.13
2016-10-08T00:20:27.559Z,72.71
2016-10-08T00:21:27.588Z,72.42
2016-10-08T00:22:27.596Z,72.32
2016-10-08T00:23:27.615Z,72.32
2016-10-08T00:24:27.632Z,72.61
2016-10-08T00:25:27.652Z,72.23
2016-10-08T00:26:27.669Z,72.32
2016-10-08T00:27:27.691Z,72.42
2016-10-08T00:28:27.706Z,72.23
2016-10-08T00:29:27.724Z,72.71
2016-10-08T00:30:27.751Z,71.94
2016-10-08T00:31:27.761Z,71.84
2016-10-08T00:32:27.780Z,72.23
2016-10-08T00:33:27.802Z,71.37
2016-10-08T00:34:27.816Z,71.56
2016-10-08T00:35:27.836Z,71.56
2016-10-08T00:36:27.854Z,71.37
2016-10-08T00:37:27.872Z,71.66
2016-10-08T00:38:27.890Z,71.56
2016-10-08T00:39:27.910Z,71.66
2016-10-08T00:40:27.939Z,71.46
2016-10-08T00:41:27.948Z,71.46
2016-10-08T00:42:27.969Z,71.75
2016-10-08T00:43:27.991Z,71.66
2016-10-08T00:44:28.001Z,71.27
2016-10-08T00:45:28.027Z,71.56
2016-10-08T00:46:28.037Z,71.62
2016-10-08T00:47:28.055Z,71.66
2016-10-08T00:48:28.074Z,71.75
2016-10-08T00:49:28.093Z,71.46
2016-10-08T00:50:28.114Z,71.46
2016-10-08T00:51:28.150Z,71.66
2016-10-08T00:52:28.149Z,71.52
2016-10-08T00:53:28.171Z,71.43
2016-10-08T00:54:28.185Z,71.62
2016-10-08T00:55:28.217Z,71.43
2016-10-08T00:56:28.228Z,71.43
2016-10-08T00:57:28.238Z,71.23
2016-10-08T00:58:28.261Z,71.43
2016-10-08T00:59:28.274Z,71.72
2016-10-08T01:00:28.293Z,71.72
2016-10-08T01:01:28.658Z,71.33
2016-10-08T01:02:28.331Z,71.33
2016-10-08T01:03:28.347Z,71.43
2016-10-08T01:04:28.365Z,71.23
2016-10-08T01:05:28.385Z,71.43
2016-10-08T01:06:28.405Z,71.81
2016-10-08T01:07:28.421Z,71.43
2016-10-08T01:08:28.438Z,71.72
2016-10-08T01:09:28.458Z,71.91
2016-10-08T01:10:28.476Z,71.62
2016-10-08T01:11:28.493Z,71.72
2016-10-08T01:12:28.511Z,71.81
2016-10-08T01:13:28.531Z,72.19
2016-10-08T01:14:28.548Z,72.28
2016-10-08T01:15:28.566Z,72.67
2016-10-08T01:16:28.584Z,72
2016-10-08T01:17:28.601Z,72.09
2016-10-08T01:18:28.621Z,72.09
2016-10-08T01:19:28.638Z,71.81
2016-10-08T01:20:28.657Z,72
2016-10-08T01:21:28.674Z,72.67
2016-10-08T01:22:28.698Z,72.48
2016-10-08T01:23:28.711Z,72.38
2016-10-08T01:24:28.729Z,72.67
2016-10-08T01:25:28.750Z,72.57
2016-10-08T01:26:28.765Z,72.38
2016-10-08T01:27:28.783Z,71.91
2016-10-08T01:28:28.802Z,72.48
2016-10-08T01:29:28.818Z,72.19
2016-10-08T01:30:28.852Z,72.38
2016-10-08T01:31:28.857Z,72.38
2016-10-08T01:32:28.874Z,72.57
2016-10-08T01:33:28.893Z,71.91
2016-10-08T01:34:28.913Z,72.19
2016-10-08T01:35:28.925Z,72.67
2016-10-08T01:36:28.945Z,72.09
2016-10-08T01:37:28.963Z,72.38
2016-10-08T01:38:28.983Z,72.19
2016-10-08T01:39:28.999Z,72.57
2016-10-08T01:40:29.020Z,72.67
2016-10-08T01:41:29.036Z,72.57
2016-10-08T01:42:29.053Z,72.67
2016-10-08T01:43:29.072Z,72.57
2016-10-08T01:44:29.090Z,72.38
2016-10-08T01:45:29.106Z,72.57
2016-10-08T01:46:29.124Z,71.81
2016-10-08T01:47:29.150Z,72.19
2016-10-08T01:48:29.161Z,71.81
2016-10-08T01:49:29.178Z,72.09
2016-10-08T01:50:29.197Z,72.38
2016-10-08T01:51:29.215Z,72.38
2016-10-08T01:52:29.233Z,72.09
2016-10-08T01:53:29.257Z,72.48
2016-10-08T01:54:29.269Z,72.48
2016-10-08T01:55:29.375Z,72.67
2016-10-08T01:56:29.309Z,72.28
2016-10-08T01:57:29.323Z,72.19
2016-10-08T01:58:29.339Z,72.09
2016-10-08T01:59:29.356Z,72.28
2016-10-08T02:00:29.374Z,72.19
2016-10-08T02:01:29.395Z,72.28
2016-10-08T02:02:29.410Z,72.28
2016-10-08T02:03:29.432Z,72.09
2016-10-08T02:04:29.447Z,72.19
2016-10-08T02:05:29.465Z,72.28
2016-10-08T02:06:29.486Z,72.38
2016-10-08T02:07:29.502Z,72.19
2016-10-08T02:08:29.519Z,72.28
2016-10-08T02:09:29.543Z,72.28
2016-10-08T02:10:29.555Z,72.28
2016-10-08T02:11:29.571Z,72.38
2016-10-08T02:12:29.592Z,72.38
2016-10-08T02:13:29.607Z,72.28
2016-10-08T02:14:29.625Z,72.28
2016-10-08T02:15:29.645Z,72.19
2016-10-08T02:16:29.670Z,72.28
2016-10-08T02:17:29.679Z,72.09
2016-10-08T02:18:29.697Z,72.09
2016-10-08T02:19:29.714Z,72.28
2016-10-08T02:20:29.736Z,72.09
2016-10-08T02:21:29.750Z,72.19
2016-10-08T02:22:29.772Z,72.19
2016-10-08T02:23:29.785Z,72.38
2016-10-08T02:24:29.803Z,72.09
2016-10-08T02:25:29.822Z,72.19
2016-10-08T02:26:29.838Z,72.09
2016-10-08T02:27:29.861Z,72.19
2016-10-08T02:28:29.876Z,72.38
2016-10-08T02:29:29.893Z,72.28
2016-10-08T02:30:29.910Z,72.28
2016-10-08T02:31:29.928Z,72.28
2016-10-08T02:32:29.947Z,72.28
2016-10-08T02:33:29.967Z,72.38
2016-10-08T02:34:29.981Z,72.57
2016-10-08T02:35:30.003Z,72.48
2016-10-08T02:36:30.016Z,72.38
2016-10-08T02:37:30.035Z,72.28
2016-10-08T02:38:30.055Z,72.19
2016-10-08T02:39:30.069Z,72.19
2016-10-08T02:40:30.087Z,72.09
2016-10-08T02:41:30.107Z,72
2016-10-08T02:42:30.122Z,72.09
2016-10-08T02:43:30.140Z,72.09
2016-10-08T02:44:30.157Z,72.28
2016-10-08T02:45:30.184Z,72.38
2016-10-08T02:46:30.192Z,72.19
2016-10-08T02:47:30.213Z,72.19
2016-10-08T02:48:30.228Z,72.09
2016-10-08T02:49:30.248Z,72.19
2016-10-08T02:50:30.266Z,72.28
2016-10-08T02:51:30.282Z,72.09
2016-10-08T02:52:30.297Z,72.09
2016-10-08T02:53:30.324Z,72.19
2016-10-08T02:54:30.341Z,72.09
2016-10-08T02:55:30.354Z,72.09
2016-10-08T02:56:30.373Z,72.48
2016-10-08T02:57:30.388Z,72.19
2016-10-08T02:58:30.412Z,72.19
2016-10-08T02:59:30.423Z,72.19
2016-10-08T03:00:30.439Z,72.19
2016-10-08T03:01:30.457Z,72.48
2016-10-08T03:02:30.475Z,72.28
2016-10-08T03:03:30.495Z,72.25
2016-10-08T03:04:30.510Z,72.19
2016-10-08T03:05:30.527Z,72.28
2016-10-08T03:06:30.545Z,72.19
2016-10-08T03:07:30.570Z,72
2016-10-08T03:08:30.579Z,72
2016-10-08T03:09:30.644Z,71.96
2016-10-08T03:10:30.617Z,72
2016-10-08T03:11:30.630Z,72.38
2016-10-08T03:12:30.652Z,72.96
2016-10-08T03:13:30.666Z,73.05
2016-10-08T03:14:30.684Z,72.48
2016-10-08T03:15:30.707Z,72.48
2016-10-08T03:16:30.720Z,72.34
2016-10-08T03:17:30.739Z,72.86
2016-10-08T03:18:30.756Z,72.63
2016-10-08T03:19:30.771Z,72.96
2016-10-08T03:20:30.791Z,72.63
2016-10-08T03:21:30.824Z,72.28
2016-10-08T03:22:30.834Z,72.19
2016-10-08T03:23:30.843Z,72
2016-10-08T03:24:30.861Z,72.16
2016-10-08T03:25:30.878Z,72.09
2016-10-08T03:26:30.901Z,72.28
2016-10-08T03:27:30.914Z,72.09
2016-10-08T03:28:30.932Z,72.28
2016-10-08T03:29:30.954Z,72.28
2016-10-08T03:30:30.976Z,72.28
2016-10-08T03:31:30.985Z,72.09
2016-10-08T03:32:31.001Z,72.09
2016-10-08T03:33:31.020Z,72.38
2016-10-08T03:34:31.039Z,72.19
2016-10-08T03:35:31.059Z,72
2016-10-08T03:36:31.072Z,72
2016-10-08T03:37:31.095Z,72.09
2016-10-08T03:38:31.421Z,72.19
2016-10-08T03:39:31.443Z,72.38
2016-10-08T03:40:31.205Z,72.28
2016-10-08T03:41:31.159Z,72.28
2016-10-08T03:42:31.176Z,72.28
2016-10-08T03:43:31.195Z,72.16
2016-10-08T03:44:31.212Z,72.19
2016-10-08T03:45:31.228Z,72.28
2016-10-08T03:46:31.351Z,72.38
2016-10-08T03:47:31.262Z,72
2016-10-08T03:48:31.284Z,72.09
2016-10-08T03:49:31.615Z,72
2016-10-08T03:50:31.318Z,72
2016-10-08T03:51:31.661Z,72.48
2016-10-08T03:52:31.358Z,72.67
2016-10-08T03:53:31.369Z,72.96
2016-10-08T03:54:31.390Z,72.86
2016-10-08T03:55:31.721Z,72.96
2016-10-08T03:56:31.428Z,72.67
2016-10-08T03:57:31.438Z,72.48
2016-10-08T03:58:31.464Z,72.96
2016-10-08T03:59:31.789Z,72.48
2016-10-08T04:00:31.495Z,72.82
2016-10-08T04:01:31.511Z,72.67
2016-10-08T04:02:31.531Z,72.67
2016-10-08T04:03:31.545Z,72.86
2016-10-08T04:04:31.563Z,72.57
2016-10-08T04:05:31.579Z,72.96
2016-10-08T04:06:31.598Z,72.86
2016-10-08T04:07:31.614Z,72.76
2016-10-08T04:08:31.630Z,72.72
2016-10-08T04:09:31.653Z,72.63
2016-10-08T04:10:31.980Z,72.82
2016-10-08T04:11:31.684Z,72.86
2016-10-08T04:12:31.707Z,72.82
2016-10-08T04:13:31.721Z,72.86
2016-10-08T04:14:31.736Z,72.96
2016-10-08T04:15:31.753Z,72.82
2016-10-08T04:16:31.771Z,72.86
2016-10-08T04:17:31.787Z,72.63
2016-10-08T04:18:31.815Z,72.82
2016-10-08T04:19:32.189Z,72.92
2016-10-08T04:20:31.841Z,72.57
2016-10-08T04:21:31.863Z,72.72
2016-10-08T04:22:31.875Z,72.63
2016-10-08T04:23:31.898Z,72.76
2016-10-08T04:24:31.913Z,72.76
2016-10-08T04:25:31.931Z,72.92
2016-10-08T04:26:31.943Z,72.53
2016-10-08T04:27:31.963Z,72.92
2016-10-08T04:28:31.984Z,72.53
2016-10-08T04:29:32.002Z,72.82
2016-10-08T04:30:32.017Z,72.72
2016-10-08T04:31:32.035Z,72.63
2016-10-08T04:32:32.365Z,72.57
2016-10-08T04:33:32.076Z,72.72
2016-10-08T04:34:32.129Z,72.53
2016-10-08T04:35:32.100Z,72.16
2016-10-08T04:36:32.119Z,72.57
2016-10-08T04:37:32.136Z,72.16
2016-10-08T04:38:32.154Z,72.16
2016-10-08T04:39:32.170Z,72.44
2016-10-08T04:40:32.505Z,72.34
2016-10-08T04:41:32.205Z,72.53
2016-10-08T04:42:32.224Z,72.25
2016-10-08T04:43:32.240Z,72.16
2016-10-08T04:44:32.258Z,72.25
2016-10-08T04:45:32.277Z,72.16
2016-10-08T04:46:32.294Z,72.16
2016-10-08T04:47:32.310Z,72.34
2016-10-08T04:48:32.328Z,72.16
2016-10-08T04:49:32.347Z,72.25
2016-10-08T04:50:32.365Z,72.25
2016-10-08T04:51:32.381Z,72.06
2016-10-08T04:52:32.403Z,72.06
2016-10-08T04:53:32.423Z,72.16
2016-10-08T04:54:32.438Z,71.96
2016-10-08T04:55:32.458Z,72.16
2016-10-08T04:56:32.468Z,72.16
2016-10-08T04:57:32.486Z,72.06
2016-10-08T04:58:32.503Z,72.25
2016-10-08T04:59:32.522Z,72.34
2016-10-08T05:00:32.537Z,72.34
2016-10-08T05:01:32.557Z,72.44
2016-10-08T05:02:32.573Z,72.25
2016-10-08T05:03:32.591Z,72.63
2016-10-08T05:04:32.608Z,72.92
2016-10-08T05:05:32.626Z,72.92
2016-10-08T05:06:32.644Z,73.01
2016-10-08T05:07:32.660Z,72.82
2016-10-08T05:08:32.685Z,72.53
2016-10-08T05:09:32.700Z,72.72
2016-10-08T05:10:32.717Z,72.72
2016-10-08T05:11:32.732Z,72.72
2016-10-08T05:12:32.749Z,72.92
2016-10-08T05:13:33.183Z,72.63
2016-10-08T05:14:32.783Z,72.72
2016-10-08T05:15:32.815Z,72.92
2016-10-08T05:16:32.817Z,72.63
2016-10-08T05:17:32.834Z,72.63
2016-10-08T05:18:32.853Z,72.82
2016-10-08T05:19:32.872Z,72.82
2016-10-08T05:20:32.886Z,72.53
2016-10-08T05:21:33.016Z,72.53
2016-10-08T05:22:32.920Z,72.53
2016-10-08T05:23:32.999Z,72.53
2016-10-08T05:24:32.989Z,72.06
2016-10-08T05:25:32.998Z,72.44
2016-10-08T05:26:33.007Z,72.53
2016-10-08T05:27:33.021Z,72.82
2016-10-08T05:28:33.159Z,72.63
2016-10-08T05:29:33.157Z,72.53
2016-10-08T05:30:33.166Z,72.44
2016-10-08T05:31:33.176Z,72.06
2016-10-08T05:32:33.184Z,72.06
2016-10-08T05:33:33.219Z,72.34
2016-10-08T05:34:33.228Z,72.25
2016-10-08T05:35:33.226Z,72.06
2016-10-08T05:36:33.250Z,72.25
2016-10-08T05:37:33.258Z,72.06
2016-10-08T05:38:33.268Z,72.92
2016-10-08T05:39:33.292Z,72.53
2016-10-08T05:40:33.301Z,72.44
2016-10-08T05:41:33.310Z,72.34
2016-10-08T05:42:33.319Z,72.25
2016-10-08T05:43:33.327Z,72.44
2016-10-08T05:44:33.327Z,72.34
2016-10-08T05:45:33.337Z,72.16
2016-10-08T05:46:33.345Z,72.34
2016-10-08T05:47:33.357Z,72.53
2016-10-08T05:48:33.377Z,72.63
2016-10-08T05:49:33.392Z,72.44
2016-10-08T05:50:33.419Z,72.53
2016-10-08T05:51:33.429Z,71.96
2016-10-08T05:52:33.446Z,72.25
2016-10-08T05:53:33.463Z,72.25
2016-10-08T05:54:33.478Z,72.25
2016-10-08T05:55:33.497Z,72.34
2016-10-08T05:56:33.513Z,72.06
2016-10-08T05:57:33.531Z,72.16
2016-10-08T05:58:33.550Z,72.16
2016-10-08T05:59:33.577Z,72.06
2016-10-08T06:00:33.584Z,72.16
2016-10-08T06:01:33.600Z,72.25
2016-10-08T06:02:33.617Z,72.34
2016-10-08T06:03:33.638Z,72.34
2016-10-08T06:04:33.653Z,72.44
2016-10-08T06:05:33.670Z,72.25
2016-10-08T06:06:33.688Z,72.25
2016-10-08T06:07:33.706Z,72.16
2016-10-08T06:08:33.728Z,72.16
2016-10-08T06:09:33.741Z,72.34
2016-10-08T06:10:33.758Z,72.34
2016-10-08T06:11:34.090Z,72.25
2016-10-08T06:12:33.791Z,72.53
2016-10-08T06:13:33.809Z,72.34
2016-10-08T06:14:33.828Z,72.34
2016-10-08T06:15:33.844Z,72.34
2016-10-08T06:16:33.862Z,72.34
2016-10-08T06:17:33.879Z,72.25
2016-10-08T06:18:33.897Z,72.53
2016-10-08T06:19:33.914Z,72.06
2016-10-08T06:20:33.932Z,72.53
2016-10-08T06:21:33.964Z,72.53
2016-10-08T06:22:33.964Z,72.16
2016-10-08T06:23:33.983Z,72.44
2016-10-08T06:24:34.001Z,72.34
2016-10-08T06:25:34.021Z,72.25
2016-10-08T06:26:34.034Z,72.34
2016-10-08T06:27:34.052Z,72.34
2016-10-08T06:28:34.069Z,72.16
2016-10-08T06:29:34.091Z,72.25
2016-10-08T06:30:34.106Z,72.16
2016-10-08T06:31:34.150Z,72.34
2016-10-08T06:32:34.138Z,72.44
2016-10-08T06:33:34.164Z,72.06
2016-10-08T06:34:34.174Z,72.16
2016-10-08T06:35:34.190Z,72.53
2016-10-08T06:36:34.208Z,72.25
2016-10-08T06:37:34.223Z,72.34
2016-10-08T06:38:34.245Z,72.53
2016-10-08T06:39:34.261Z,72.34
2016-10-08T06:40:34.277Z,72.53
2016-10-08T06:41:34.293Z,72.25
2016-10-08T06:42:34.313Z,72.06
2016-10-08T06:43:34.328Z,72.16
2016-10-08T06:44:34.347Z,72.34
2016-10-08T06:45:34.365Z,72.34
2016-10-08T06:46:34.381Z,72.34
2016-10-08T06:47:34.398Z,72.06
2016-10-08T06:48:34.414Z,72.34
2016-10-08T06:49:34.432Z,72.34
2016-10-08T06:50:34.450Z,72.38
2016-10-08T06:51:34.468Z,72.16
2016-10-08T06:52:34.487Z,72.16
2016-10-08T06:53:34.502Z,72.28
2016-10-08T06:54:34.529Z,72.34
2016-10-08T06:55:34.535Z,72.53
2016-10-08T06:56:34.562Z,72.57
2016-10-08T06:57:34.570Z,71.81
2016-10-08T06:58:34.587Z,71.68
2016-10-08T06:59:34.605Z,71.72
2016-10-08T07:00:34.622Z,72.09
2016-10-08T07:01:34.641Z,72.09
2016-10-08T07:02:34.655Z,72.09
2016-10-08T07:03:34.674Z,72.09
2016-10-08T07:04:34.693Z,71.91
2016-10-08T07:05:34.714Z,72.57
2016-10-08T07:06:34.732Z,71.81
2016-10-08T07:07:34.744Z,71.72
2016-10-08T07:08:34.761Z,71.96
2016-10-08T07:09:34.780Z,72.25
2016-10-08T07:10:34.797Z,72.38
2016-10-08T07:11:34.813Z,72.28
2016-10-08T07:12:34.831Z,71.81
2016-10-08T07:13:34.848Z,71.91
2016-10-08T07:14:34.866Z,72.28
2016-10-08T07:15:34.882Z,71.91
2016-10-08T07:16:34.901Z,72.09
2016-10-08T07:17:34.916Z,71.91
2016-10-08T07:18:34.934Z,71.91
2016-10-08T07:19:34.955Z,72.09
2016-10-08T07:20:34.969Z,72
2016-10-08T07:21:34.988Z,71.91
2016-10-08T07:22:35.003Z,71.91
2016-10-08T07:23:35.022Z,72
2016-10-08T07:24:35.037Z,72.09
2016-10-08T07:25:35.055Z,72.09
2016-10-08T07:26:35.073Z,72.67
2016-10-08T07:27:35.092Z,72.57
2016-10-08T07:28:35.108Z,72.57
2016-10-08T07:29:35.125Z,72.67
2016-10-08T07:30:35.145Z,72.28
2016-10-08T07:31:35.159Z,72.19
2016-10-08T07:32:35.176Z,72.28
2016-10-08T07:33:35.200Z,72.28
2016-10-08T07:34:35.212Z,72.48
2016-10-08T07:35:35.228Z,72.57
2016-10-08T07:36:35.245Z,72.19
2016-10-08T07:37:35.263Z,71.91
2016-10-08T07:38:35.281Z,72.57
2016-10-08T07:39:35.300Z,71.81
2016-10-08T07:40:35.315Z,72.09
2016-10-08T07:41:35.334Z,72.09
2016-10-08T07:42:35.356Z,72.09
2016-10-08T07:43:35.373Z,72.09
2016-10-08T07:44:35.385Z,72.28
2016-10-08T07:45:35.400Z,72.19
2016-10-08T07:46:35.418Z,71.91
2016-10-08T07:47:35.435Z,72.03
2016-10-08T07:48:35.455Z,72.19
2016-10-08T07:49:35.472Z,71.91
2016-10-08T07:50:35.486Z,71.91
2016-10-08T07:51:35.506Z,71.91
2016-10-08T07:52:35.523Z,71.81
2016-10-08T07:53:35.539Z,72.13
2016-10-08T07:54:35.556Z,71.75
2016-10-08T07:55:35.577Z,71.46
2016-10-08T07:56:35.594Z,72.13
2016-10-08T07:57:35.616Z,71.66
2016-10-08T07:58:35.630Z,71.46
2016-10-08T07:59:35.646Z,71.75
2016-10-08T08:00:35.672Z,71.66
2016-10-08T08:01:35.697Z,71.56
2016-10-08T08:02:35.701Z,71.46
2016-10-08T08:03:35.716Z,71.75
2016-10-08T08:04:35.732Z,71.94
2016-10-08T08:05:35.751Z,71.18
2016-10-08T08:06:35.768Z,70.98
2016-10-08T08:07:35.786Z,71.18
2016-10-08T08:08:35.804Z,70.89
2016-10-08T08:09:35.818Z,71.27
2016-10-08T08:10:35.840Z,70.98
2016-10-08T08:11:35.857Z,71.37
2016-10-08T08:12:35.880Z,71.27
2016-10-08T08:13:35.890Z,71.37
2016-10-08T08:14:35.908Z,71.37
2016-10-08T08:15:35.923Z,71.37
2016-10-08T08:16:35.943Z,71.27
2016-10-08T08:17:35.961Z,71.46
2016-10-08T08:18:35.979Z,71.37
2016-10-08T08:19:35.995Z,71.37
2016-10-08T08:20:36.015Z,71.18
2016-10-08T08:21:36.033Z,71.46
2016-10-08T08:22:36.047Z,71.66
2016-10-08T08:23:36.065Z,70.98
2016-10-08T08:24:36.082Z,70.89
2016-10-08T08:25:36.101Z,70.89
2016-10-08T08:26:36.117Z,70.98
2016-10-08T08:27:36.135Z,71.37
2016-10-08T08:28:36.155Z,70.79
2016-10-08T08:29:36.171Z,70.7
2016-10-08T08:30:36.187Z,70.89
2016-10-08T08:31:36.208Z,71.18
2016-10-08T08:32:36.221Z,71.27
2016-10-08T08:33:36.242Z,71.08
2016-10-08T08:34:36.258Z,71.18
2016-10-08T08:35:36.282Z,71.08
2016-10-08T08:36:36.298Z,71.18
2016-10-08T08:37:36.315Z,71.08
2016-10-08T08:38:36.331Z,70.98
2016-10-08T08:39:36.348Z,70.89
2016-10-08T08:40:36.368Z,70.42
2016-10-08T08:41:36.382Z,70.89
2016-10-08T08:42:36.401Z,70.7
2016-10-08T08:43:36.418Z,70.7
2016-10-08T08:44:36.435Z,70.42
2016-10-08T08:45:36.771Z,70.7
2016-10-08T08:46:36.469Z,70.42
2016-10-08T08:47:36.488Z,70.51
2016-10-08T08:48:36.510Z,70.79
2016-10-08T08:49:36.524Z,70.42
2016-10-08T08:50:36.542Z,70.22
2016-10-08T08:51:36.563Z,70.79
2016-10-08T08:52:36.577Z,70.61
2016-10-08T08:53:36.598Z,70.79
2016-10-08T08:54:36.615Z,70.61
2016-10-08T08:55:36.637Z,70.61
2016-10-08T08:56:36.649Z,70.51
2016-10-08T08:57:36.664Z,70.42
2016-10-08T08:58:36.683Z,70.22
2016-10-08T08:59:36.700Z,70.32
2016-10-08T09:00:36.719Z,70.22
2016-10-08T09:01:36.788Z,70.22
2016-10-08T09:02:36.755Z,70.61
2016-10-08T09:03:36.772Z,70.32
2016-10-08T09:04:36.790Z,70.51
2016-10-08T09:05:36.806Z,70.51
2016-10-08T09:06:37.475Z,70.51
2016-10-08T09:07:36.843Z,70.32
2016-10-08T09:08:36.862Z,70.61
2016-10-08T09:09:36.879Z,69.74
2016-10-08T09:10:36.897Z,70.03
2016-10-08T09:11:36.915Z,70.42
2016-10-08T09:12:36.935Z,69.84
2016-10-08T09:13:36.950Z,69.37
2016-10-08T09:14:36.966Z,69.65
2016-10-08T09:15:36.985Z,69.4
2016-10-08T09:16:37.020Z,69.78
2016-10-08T09:17:37.026Z,69.78
2016-10-08T09:18:37.037Z,69.49
2016-10-08T09:19:37.060Z,69.87
2016-10-08T09:20:37.078Z,69.4
2016-10-08T09:21:37.093Z,69.97
2016-10-08T09:22:37.118Z,69.21
2016-10-08T09:23:37.131Z,69.21
2016-10-08T09:24:37.149Z,69.21
2016-10-08T09:25:37.168Z,69.4
2016-10-08T09:26:37.185Z,69.21
2016-10-08T09:27:37.204Z,69.31
2016-10-08T09:28:37.221Z,69.11
2016-10-08T09:29:37.240Z,69.68
2016-10-08T09:30:37.263Z,69.68
2016-10-08T09:31:37.277Z,69.49
2016-10-08T09:32:37.295Z,69.78
2016-10-08T09:33:37.320Z,69.78
2016-10-08T09:34:37.331Z,69.62
2016-10-08T09:35:37.349Z,69.31
2016-10-08T09:36:37.368Z,69.15
2016-10-08T09:37:37.390Z,69.43
2016-10-08T09:38:37.424Z,69.62
2016-10-08T09:39:37.429Z,69.53
2016-10-08T09:40:37.442Z,69.34
2016-10-08T09:41:37.460Z,68.86
2016-10-08T09:42:37.478Z,68.67
2016-10-08T09:43:37.496Z,69.24
2016-10-08T09:44:37.514Z,68.57
2016-10-08T09:45:37.533Z,68.86
2016-10-08T09:46:37.551Z,68.57
2016-10-08T09:47:37.577Z,68.19
2016-10-08T09:48:37.594Z,68.57
2016-10-08T09:49:37.608Z,67.71
2016-10-08T09:50:37.626Z,67.81
2016-10-08T09:51:37.651Z,68.48
2016-10-08T09:52:37.664Z,67.81
2016-10-08T09:53:37.681Z,68.04
2016-10-08T09:54:37.699Z,68.13
2016-10-08T09:55:37.719Z,67.18
2016-10-08T09:56:37.738Z,66.79
2016-10-08T09:57:38.070Z,67.55
2016-10-08T09:58:37.775Z,67.36
2016-10-08T09:59:37.803Z,67.08
2016-10-08T10:00:37.813Z,66.89
2016-10-08T10:01:37.830Z,66.99
2016-10-08T10:02:37.849Z,66.6
2016-10-08T10:03:37.868Z,67.08
2016-10-08T10:04:37.891Z,66.16
2016-10-08T10:05:37.906Z,67.02
2016-10-08T10:06:37.923Z,66.73
2016-10-08T10:07:37.946Z,66.25
2016-10-08T10:08:37.963Z,66.44
2016-10-08T10:09:37.985Z,66.35
2016-10-08T10:10:38.005Z,65.87
2016-10-08T10:11:38.022Z,66.25
2016-10-08T10:12:38.041Z,65.77
2016-10-08T10:13:38.057Z,65.77
2016-10-08T10:14:38.078Z,66.16
2016-10-08T10:15:38.117Z,65.58
2016-10-08T10:16:38.116Z,65.77
2016-10-08T10:17:38.135Z,65.68
2016-10-08T10:18:38.155Z,66.16
2016-10-08T10:19:38.174Z,65.87
2016-10-08T10:20:38.196Z,66.06
2016-10-08T10:21:38.212Z,65.97
2016-10-08T10:22:38.232Z,65.58
2016-10-08T10:23:38.249Z,65.71
2016-10-08T10:24:38.270Z,65.68
2016-10-08T10:25:38.290Z,66.09
2016-10-08T10:26:38.309Z,65.52
2016-10-08T10:27:38.328Z,65.42
2016-10-08T10:28:38.346Z,65.9
2016-10-08T10:29:38.367Z,65.9
2016-10-08T10:30:38.383Z,65.33
2016-10-08T10:31:38.402Z,65.33
2016-10-08T10:32:38.421Z,65.52
2016-10-08T10:33:38.440Z,65.61
2016-10-08T10:34:38.461Z,65.23
2016-10-08T10:35:38.592Z,66
2016-10-08T10:36:38.500Z,66.09
2016-10-08T10:37:38.520Z,65.9
2016-10-08T10:38:38.540Z,65.9
2016-10-08T10:39:38.557Z,65.14
2016-10-08T10:40:38.578Z,64.95
2016-10-08T10:41:38.596Z,64.75
2016-10-08T10:42:38.621Z,65.33
2016-10-08T10:43:38.637Z,65.04
2016-10-08T10:44:38.654Z,64.95
2016-10-08T10:45:38.681Z,64.95
2016-10-08T10:46:38.693Z,64.85
2016-10-08T10:47:38.713Z,64.37
2016-10-08T10:48:38.731Z,64.75
2016-10-08T10:49:38.758Z,64.66
2016-10-08T10:50:39.201Z,64.75
2016-10-08T10:51:39.071Z,64.09
2016-10-08T10:52:38.939Z,64.28
2016-10-08T10:53:38.978Z,64.28
2016-10-08T10:54:38.989Z,64.37
2016-10-08T10:55:38.997Z,63.7
2016-10-08T10:56:39.084Z,63.45
2016-10-08T10:57:39.004Z,64.12
2016-10-08T10:58:39.012Z,64.12
2016-10-08T10:59:39.021Z,63.35
2016-10-08T11:00:38.970Z,63.83
2016-10-08T11:01:38.985Z,64.22
2016-10-08T11:02:39.011Z,63.54
2016-10-08T11:03:39.022Z,63.54
2016-10-08T11:04:39.043Z,63.45
2016-10-08T11:05:39.063Z,63.26
2016-10-08T11:06:39.083Z,63.45
2016-10-08T11:07:39.103Z,62.87
2016-10-08T11:08:39.123Z,63.26
2016-10-08T11:09:39.152Z,62.97
2016-10-08T11:10:39.164Z,62.59
2016-10-08T11:11:39.183Z,63.16
2016-10-08T11:12:39.200Z,62.49
2016-10-08T11:13:39.221Z,62.59
2016-10-08T11:14:39.242Z,63.16
2016-10-08T11:15:39.262Z,62.97
2016-10-08T11:16:39.281Z,62.68
2016-10-08T11:17:39.300Z,62.49
2016-10-08T11:18:39.318Z,62.59
2016-10-08T11:19:39.341Z,62.97
2016-10-08T11:20:39.359Z,62.77
2016-10-08T11:21:39.381Z,62.97
2016-10-08T11:22:39.397Z,63.06
2016-10-08T11:23:39.419Z,63.06
2016-10-08T11:24:39.437Z,62.97
2016-10-08T11:25:39.457Z,63.06
2016-10-08T11:26:39.477Z,63.06
2016-10-08T11:27:39.497Z,63.45
2016-10-08T11:28:39.517Z,63.16
2016-10-08T11:29:39.535Z,63.45
2016-10-08T11:30:39.555Z,63.26
2016-10-08T11:31:39.577Z,63.45
2016-10-08T11:32:39.595Z,63.64
2016-10-08T11:33:39.615Z,63.54
2016-10-08T11:34:39.638Z,63.93
2016-10-08T11:35:39.712Z,64.12
2016-10-08T11:36:39.718Z,63.73
2016-10-08T11:37:39.694Z,63.64
2016-10-08T11:38:39.714Z,63.93
2016-10-08T11:39:39.735Z,64.02
2016-10-08T11:40:39.753Z,63.73
2016-10-08T11:41:39.773Z,63.83
2016-10-08T11:42:39.791Z,63.73
2016-10-08T11:43:39.813Z,63.93
2016-10-08T11:44:39.841Z,63.83
2016-10-08T11:45:39.852Z,63.83
2016-10-08T11:46:39.875Z,63.54
2016-10-08T11:47:39.891Z,63.73
2016-10-08T11:48:39.912Z,63.83
2016-10-08T11:49:39.932Z,63.73
2016-10-08T11:50:39.951Z,63.64
2016-10-08T11:51:39.971Z,63.83
2016-10-08T11:52:39.991Z,63.93
2016-10-08T11:53:40.010Z,64.12
2016-10-08T11:54:40.030Z,64.02
2016-10-08T11:55:40.050Z,63.35
2016-10-08T11:56:40.071Z,64.02
2016-10-08T11:57:40.093Z,63.93
2016-10-08T11:58:40.108Z,63.83
2016-10-08T11:59:40.130Z,64.02
2016-10-08T12:00:40.149Z,63.93
2016-10-08T12:01:40.171Z,64.12
2016-10-08T12:02:40.188Z,64.31
2016-10-08T12:03:40.207Z,63.73
2016-10-08T12:04:40.227Z,63.26
2016-10-08T12:05:40.245Z,63.35
2016-10-08T12:06:40.266Z,63.26
2016-10-08T12:07:40.287Z,63.16
2016-10-08T12:08:40.306Z,63.06
2016-10-08T12:09:40.325Z,62.87
2016-10-08T12:10:40.347Z,62.97
2016-10-08T12:11:40.480Z,63.06
2016-10-08T12:12:40.500Z,63.48
2016-10-08T12:13:40.521Z,62.62
2016-10-08T12:14:40.517Z,62.62
2016-10-08T12:15:40.541Z,63
2016-10-08T12:16:40.550Z,62.81
2016-10-08T12:17:40.560Z,62.71
2016-10-08T12:18:40.568Z,63.19
2016-10-08T12:19:40.577Z,62.9
2016-10-08T12:20:40.575Z,63
2016-10-08T12:21:40.584Z,62.81
2016-10-08T12:22:40.654Z,63.1
2016-10-08T12:23:40.664Z,62.81
2016-10-08T12:24:40.662Z,62.9
2016-10-08T12:25:40.670Z,62.71
2016-10-08T12:26:40.678Z,63.1
2016-10-08T12:27:40.686Z,62.9
2016-10-08T12:28:40.706Z,63.1
2016-10-08T12:29:40.819Z,62.9
2016-10-08T12:30:40.819Z,62.9
2016-10-08T12:31:40.853Z,62.81
2016-10-08T12:32:40.862Z,63.1
2016-10-08T12:33:41.119Z,63
2016-10-08T12:34:40.879Z,63.19
2016-10-08T12:35:40.846Z,62.81
2016-10-08T12:36:40.864Z,62.9
2016-10-08T12:37:40.886Z,62.81
2016-10-08T12:38:40.905Z,62.52
2016-10-08T12:39:40.924Z,63.29
2016-10-08T12:40:40.946Z,63.19
2016-10-08T12:41:40.963Z,63.29
2016-10-08T12:42:40.986Z,63.39
2016-10-08T12:43:41.005Z,63.26
2016-10-08T12:44:41.025Z,63.39
2016-10-08T12:45:41.045Z,63.29
2016-10-08T12:46:41.114Z,63.57
2016-10-08T12:47:41.084Z,63.48
2016-10-08T12:48:41.103Z,63.48
2016-10-08T12:49:41.124Z,63.19
2016-10-08T12:50:41.143Z,62.81
2016-10-08T12:51:41.165Z,63.39
2016-10-08T12:52:41.185Z,63.39
2016-10-08T12:53:41.206Z,63.39
2016-10-08T12:54:41.224Z,63.48
2016-10-08T12:55:41.245Z,63.1